createdAt,value
2022-08-22T00:00:13.662Z,88.40
2022-08-22T00:01:13.463Z,87.99
2022-08-22T00:02:13.510Z,88.10
2022-08-22T00:02:42.335Z,59.12
2022-08-22T00:02:54.492Z,76.86
2022-08-22T00:02:56.965Z,62.06
2022-08-22T00:02:58.380Z,62.19
2022-08-22T00:03:01.344Z,70.09
2022-08-22T00:03:01.452Z,61.43
2022-08-22T00:03:18.816Z,88.44
2022-08-22T00:04:15.452Z,89.20
2022-08-22T00:05:13.504Z,90.66
2022-08-22T00:06:13.490Z,90.46
2022-08-22T00:07:13.461Z,90.52
2022-08-22T00:08:13.490Z,88.69
2022-08-22T00:09:13.410Z,88.95
2022-08-22T00:10:20.988Z,90.01
2022-08-22T00:11:14.479Z,90.83
2022-08-22T00:12:13.411Z,91.03
2022-08-22T00:13:13.402Z,90.25
2022-08-22T00:14:13.414Z,90.86
2022-08-22T00:15:31.502Z,91.48
2022-08-22T00:16:15.407Z,91.78
2022-08-22T00:17:13.362Z,90.77
2022-08-22T00:18:13.363Z,90.11
2022-08-22T00:19:13.372Z,90.25
2022-08-22T00:20:13.363Z,90.86
2022-08-22T00:21:13.404Z,91.58
2022-08-22T00:22:13.326Z,91.01
2022-08-22T00:23:13.363Z,91.42
2022-08-22T00:24:13.359Z,92.27
2022-08-22T00:25:25.866Z,93.35
2022-08-22T00:26:14.294Z,93.50
2022-08-22T00:27:13.291Z,93.40
2022-08-22T00:28:13.303Z,92.03
2022-08-22T00:29:13.307Z,92.84
2022-08-22T00:30:14.330Z,92.48
2022-08-22T00:31:13.470Z,92.23
2022-08-22T00:32:13.258Z,92.44
2022-08-22T00:33:13.252Z,93.15
2022-08-22T00:34:13.307Z,92.74
2022-08-22T00:35:13.270Z,92.60
2022-08-22T00:36:13.238Z,91.58
2022-08-22T00:37:13.228Z,91.58
2022-08-22T00:38:13.243Z,91.07
2022-08-22T00:39:13.209Z,90.22
2022-08-22T00:40:13.290Z,89.64
2022-08-22T00:41:14.110Z,90.50
2022-08-22T00:42:13.185Z,91.11
2022-08-22T00:43:13.189Z,92.23
2022-08-22T00:44:13.199Z,91.11
2022-08-22T00:45:13.209Z,92.54
2022-08-22T00:46:13.167Z,92.99
2022-08-22T00:47:13.164Z,93.09
2022-08-22T00:48:14.400Z,93.54
2022-08-22T00:49:13.151Z,93.85
2022-08-22T00:50:13.180Z,95.28
2022-08-22T00:51:13.136Z,95.37
2022-08-22T00:52:13.125Z,94.92
2022-08-22T00:53:13.114Z,95.37
2022-08-22T00:54:17.805Z,94.91
2022-08-22T00:55:13.112Z,95.52
2022-08-22T00:56:13.114Z,95.52
2022-08-22T00:57:13.111Z,95.62
2022-08-22T00:58:13.181Z,96.23
2022-08-22T00:59:23.761Z,96.84
2022-08-22T01:00:14.083Z,96.50
2022-08-22T01:01:13.182Z,95.68
2022-08-22T01:02:13.105Z,94.46
2022-08-22T01:03:13.085Z,93.44
2022-08-22T01:04:13.063Z,93.74
2022-08-22T01:05:13.049Z,94.30
2022-08-22T01:06:13.054Z,95.01
2022-08-22T01:07:13.018Z,95.32
2022-08-22T01:08:13.024Z,96.48
2022-08-22T01:09:13.019Z,97.30
2022-08-22T01:10:13.000Z,97.20
2022-08-22T01:11:13.031Z,97.20
2022-08-22T01:12:13.001Z,97.87
2022-08-22T01:13:13.006Z,97.40
2022-08-22T01:14:12.972Z,96.34
2022-08-22T01:15:12.963Z,95.42
2022-08-22T01:16:12.967Z,95.93
2022-08-22T01:17:13.013Z,95.17
2022-08-22T01:18:12.950Z,95.42
2022-08-22T01:19:13.513Z,94.56
2022-08-22T01:20:12.937Z,94.81
2022-08-22T01:21:12.928Z,95.52
2022-08-22T01:22:12.999Z,95.21
2022-08-22T01:23:12.936Z,95.48
2022-08-22T01:24:12.919Z,93.90
2022-08-22T01:25:12.925Z,93.09
2022-08-22T01:26:12.897Z,92.58
2022-08-22T01:27:12.932Z,92.74
2022-08-22T01:28:12.896Z,92.27
2022-08-22T01:29:12.879Z,91.97
2022-08-22T01:30:12.886Z,93.09
2022-08-22T01:31:12.867Z,93.60
2022-08-22T01:32:12.882Z,92.27
2022-08-22T01:33:12.859Z,93.50
2022-08-22T01:34:13.203Z,93.45
2022-08-22T01:35:12.825Z,92.13
2022-08-22T01:36:12.819Z,90.91
2022-08-22T01:37:12.809Z,90.40
2022-08-22T01:38:13.093Z,91.72
2022-08-22T01:39:12.802Z,91.07
2022-08-22T01:40:12.913Z,91.01
2022-08-22T01:41:12.793Z,91.83
2022-08-22T01:42:12.783Z,92.33
2022-08-22T01:43:12.820Z,92.84
2022-08-22T01:44:12.772Z,92.54
2022-08-22T01:45:12.776Z,91.72
2022-08-22T01:46:12.781Z,91.62
2022-08-22T01:47:13.749Z,92.83
2022-08-22T01:48:12.778Z,93.59
2022-08-22T01:49:12.736Z,95.97
2022-08-22T01:50:12.725Z,98.93
2022-08-22T01:51:12.716Z,99.50
2022-08-22T01:52:12.708Z,98.58
2022-08-22T01:53:12.739Z,98.79
2022-08-22T01:54:12.691Z,97.66
2022-08-22T01:55:12.682Z,95.57
2022-08-22T01:56:12.671Z,96.28
2022-08-22T01:57:12.674Z,97.75
2022-08-22T01:58:12.660Z,98.77
2022-08-22T01:59:12.675Z,99.59
2022-08-22T02:00:12.656Z,99.49
2022-08-22T02:01:12.697Z,99.49
2022-08-22T02:02:13.647Z,99.65
2022-08-22T02:03:12.671Z,98.93
2022-08-22T02:04:12.662Z,97.56
2022-08-22T02:05:12.625Z,96.28
2022-08-22T02:06:12.616Z,97.65
2022-08-22T02:07:12.612Z,98.57
2022-08-22T02:08:12.604Z,99.39
2022-08-22T02:09:14.495Z,99.49
2022-08-22T02:10:13.580Z,99.39
2022-08-22T02:11:12.580Z,99.79
2022-08-22T02:12:21.481Z,99.99
2022-08-22T02:13:13.577Z,99.79
2022-08-22T02:14:12.595Z,99.39
2022-08-22T02:15:12.554Z,98.83
2022-08-22T02:16:12.549Z,98.52
2022-08-22T02:17:12.546Z,96.79
2022-08-22T02:18:12.549Z,96.89
2022-08-22T02:19:12.515Z,97.75
2022-08-22T02:20:12.558Z,98.57
2022-08-22T02:21:12.513Z,99.59
2022-08-22T02:22:12.493Z,98.98
2022-08-22T02:23:12.491Z,98.61
2022-08-22T02:24:12.550Z,97.80
2022-08-22T02:25:12.517Z,98.93
2022-08-22T02:26:12.468Z,99.02
2022-08-22T02:27:12.476Z,99.43
2022-08-22T02:28:12.454Z,99.95
2022-08-22T02:29:12.447Z,99.49
2022-08-22T02:30:12.450Z,99.74
2022-08-22T02:31:16.614Z,99.13
2022-08-22T02:32:12.441Z,98.77
2022-08-22T02:33:12.530Z,98.77
2022-08-22T02:34:12.494Z,99.89
2022-08-22T02:35:12.472Z,99.99
2022-08-22T02:36:12.441Z,99.99
2022-08-22T02:37:12.410Z,99.99
2022-08-22T02:38:12.391Z,99.99
2022-08-22T02:39:12.396Z,99.99
2022-08-22T02:40:12.419Z,99.99
2022-08-22T02:41:12.363Z,99.99
2022-08-22T02:42:12.431Z,99.99
2022-08-22T02:43:12.354Z,99.84
2022-08-22T02:44:12.354Z,99.02
2022-08-22T02:45:12.338Z,99.54
2022-08-22T02:46:12.330Z,99.07
2022-08-22T02:47:13.372Z,99.99
2022-08-22T02:48:12.311Z,99.63
2022-08-22T02:49:12.306Z,99.99
2022-08-22T02:50:13.100Z,99.99
2022-08-22T02:51:12.300Z,99.99
2022-08-22T02:52:12.325Z,99.99
2022-08-22T02:53:12.278Z,99.99
2022-08-22T02:54:12.281Z,99.99
2022-08-22T02:55:13.272Z,99.99
2022-08-22T02:56:12.255Z,99.99
2022-08-22T02:57:14.443Z,99.99
2022-08-22T02:58:12.276Z,99.99
2022-08-22T02:59:12.264Z,99.99
2022-08-22T03:00:29.723Z,99.99
2022-08-22T03:01:13.271Z,99.99
2022-08-22T03:02:12.223Z,99.99
2022-08-22T03:03:12.305Z,99.99
2022-08-22T03:04:12.206Z,99.99
2022-08-22T03:05:12.202Z,99.99
2022-08-22T03:06:12.214Z,99.99
2022-08-22T03:07:19.098Z,99.99
2022-08-22T03:08:13.106Z,99.99
2022-08-22T03:09:12.219Z,99.99
2022-08-22T03:10:12.174Z,99.99
2022-08-22T03:11:12.159Z,99.99
2022-08-22T03:12:12.158Z,99.99
2022-08-22T03:13:12.154Z,99.99
2022-08-22T03:14:12.181Z,99.99
2022-08-22T03:15:12.129Z,99.99
2022-08-22T03:16:12.135Z,99.99
2022-08-22T03:17:12.122Z,99.99
2022-08-22T03:18:12.114Z,99.99
2022-08-22T03:19:13.186Z,99.99
2022-08-22T03:20:13.127Z,99.99
2022-08-22T03:21:12.095Z,99.99
2022-08-22T03:22:12.096Z,99.29
2022-08-22T03:23:12.100Z,99.99
2022-08-22T03:24:12.092Z,99.99
2022-08-22T03:25:12.082Z,99.99
2022-08-22T03:26:12.059Z,99.99
2022-08-22T03:27:12.067Z,99.99
2022-08-22T03:28:12.074Z,99.99
2022-08-22T03:29:12.049Z,99.99
2022-08-22T03:30:12.034Z,99.99
2022-08-22T03:31:12.093Z,99.99
2022-08-22T03:32:12.025Z,99.99
2022-08-22T03:33:12.117Z,99.85
2022-08-22T03:34:12.010Z,98.93
2022-08-22T03:35:12.005Z,97.55
2022-08-22T03:36:12.006Z,97.34
2022-08-22T03:37:11.986Z,98.77
2022-08-22T03:38:12.023Z,98.36
2022-08-22T03:39:16.459Z,98.47
2022-08-22T03:40:13.017Z,98.36
2022-08-22T03:41:11.955Z,97.86
2022-08-22T03:42:11.956Z,96.94
2022-08-22T03:43:11.996Z,97.45
2022-08-22T03:44:11.933Z,97.75
2022-08-22T03:45:11.938Z,98.77
2022-08-22T03:46:11.928Z,98.77
2022-08-22T03:47:11.915Z,97.08
2022-08-22T03:48:11.918Z,97.64
2022-08-22T03:49:11.929Z,98.50
2022-08-22T03:50:11.894Z,99.99
2022-08-22T03:51:11.903Z,99.99
2022-08-22T03:52:11.880Z,99.99
2022-08-22T03:53:15.510Z,99.99
2022-08-22T03:54:11.903Z,99.99
2022-08-22T03:55:11.858Z,99.99
2022-08-22T03:56:11.855Z,99.99
2022-08-22T03:57:11.849Z,99.99
2022-08-22T03:58:17.140Z,99.27
2022-08-22T03:59:12.872Z,98.46
2022-08-22T04:00:11.846Z,99.07
2022-08-22T04:01:11.851Z,97.89
2022-08-22T04:02:31.455Z,99.22
2022-08-22T04:03:12.801Z,99.99
2022-08-22T04:04:11.835Z,99.99
2022-08-22T04:05:11.860Z,99.82
2022-08-22T04:06:12.932Z,99.99
2022-08-22T04:07:17.003Z,99.99
2022-08-22T04:08:13.074Z,99.99
2022-08-22T04:09:11.805Z,99.99
2022-08-22T04:10:11.807Z,99.99
2022-08-22T04:11:11.750Z,99.99
2022-08-22T04:12:11.739Z,99.99
2022-08-22T04:13:11.730Z,99.99
2022-08-22T04:14:11.776Z,99.99
2022-08-22T04:15:11.750Z,99.99
2022-08-22T04:16:11.749Z,99.99
2022-08-22T04:17:11.700Z,99.99
2022-08-22T04:18:11.709Z,99.99
2022-08-22T04:19:11.692Z,99.99
2022-08-22T04:20:11.705Z,99.99
2022-08-22T04:21:11.744Z,99.99
2022-08-22T04:22:11.680Z,99.99
2022-08-22T04:23:11.662Z,99.99
2022-08-22T04:24:11.666Z,99.99
2022-08-22T04:25:11.659Z,99.99
2022-08-22T04:26:12.623Z,99.99
2022-08-22T04:27:11.645Z,99.99
2022-08-22T04:28:11.631Z,99.99
2022-08-22T04:29:11.638Z,99.99
2022-08-22T04:30:11.653Z,99.99
2022-08-22T04:31:11.601Z,99.99
2022-08-22T04:32:14.557Z,99.99
2022-08-22T04:33:12.581Z,99.99
2022-08-22T04:34:11.612Z,99.99
2022-08-22T04:35:11.629Z,99.99
2022-08-22T04:36:11.620Z,99.99
2022-08-22T04:37:11.568Z,99.99
2022-08-22T04:38:11.566Z,99.99
2022-08-22T04:39:11.553Z,99.99
2022-08-22T04:40:11.610Z,99.99
2022-08-22T04:41:11.578Z,99.99
2022-08-22T04:42:31.788Z,99.99
2022-08-22T04:43:13.529Z,99.99
2022-08-22T04:44:11.513Z,99.99
2022-08-22T04:45:11.528Z,99.99
2022-08-22T04:46:11.530Z,99.99
2022-08-22T04:47:12.068Z,99.99
2022-08-22T04:48:11.514Z,99.99
2022-08-22T04:49:11.478Z,99.99
2022-08-22T04:50:11.509Z,99.99
2022-08-22T04:51:11.507Z,99.99
2022-08-22T04:52:11.459Z,99.99
2022-08-22T04:53:11.452Z,99.99
2022-08-22T04:54:11.438Z,99.99
2022-08-22T04:55:11.446Z,99.99
2022-08-22T04:56:11.511Z,99.99
2022-08-22T04:57:11.421Z,99.99
2022-08-22T04:58:11.426Z,99.99
2022-08-22T04:59:11.423Z,99.99
2022-08-22T05:00:11.399Z,99.99
2022-08-22T05:01:11.405Z,99.99
2022-08-22T05:02:11.473Z,99.99
2022-08-22T05:03:11.383Z,99.99
2022-08-22T05:04:11.373Z,99.99
2022-08-22T05:05:13.410Z,99.99
2022-08-22T05:06:11.363Z,99.95
2022-08-22T05:07:11.392Z,99.90
2022-08-22T05:08:11.565Z,99.34
2022-08-22T05:09:15.928Z,99.34
2022-08-22T05:10:12.647Z,98.83
2022-08-22T05:11:11.328Z,98.83
2022-08-22T05:12:11.331Z,98.43
2022-08-22T05:13:11.311Z,98.68
2022-08-22T05:14:11.310Z,98.38
2022-08-22T05:15:11.321Z,98.48
2022-08-22T05:16:11.293Z,97.56
2022-08-22T05:17:11.315Z,97.97
2022-08-22T05:18:11.275Z,97.46
2022-08-22T05:19:16.045Z,97.25
2022-08-22T05:20:13.279Z,96.70
2022-08-22T05:21:11.306Z,96.50
2022-08-22T05:22:11.293Z,96.60
2022-08-22T05:23:17.683Z,95.94
2022-08-22T05:24:12.242Z,95.74
2022-08-22T05:25:11.227Z,95.23
2022-08-22T05:26:11.233Z,94.92
2022-08-22T05:27:11.281Z,94.62
2022-08-22T05:28:11.213Z,94.42
2022-08-22T05:29:11.204Z,94.62
2022-08-22T05:30:11.208Z,94.42
2022-08-22T05:31:11.189Z,94.37
2022-08-22T05:32:11.234Z,93.76
2022-08-22T05:33:11.183Z,93.45
2022-08-22T05:34:11.240Z,93.45
2022-08-22T05:35:11.162Z,93.51
2022-08-22T05:36:11.203Z,93.41
2022-08-22T05:37:11.138Z,93.10
2022-08-22T05:38:11.167Z,91.94
2022-08-22T05:39:11.137Z,93.51
2022-08-22T05:40:11.207Z,92.04
2022-08-22T05:41:11.117Z,91.94
2022-08-22T05:42:11.106Z,92.25
2022-08-22T05:43:11.130Z,91.90
2022-08-22T05:44:11.097Z,91.19
2022-08-22T05:45:12.250Z,92.00
2022-08-22T05:46:11.096Z,91.90
2022-08-22T05:47:11.081Z,91.96
2022-08-22T05:48:11.092Z,91.14
2022-08-22T05:49:11.052Z,90.33
2022-08-22T05:50:11.082Z,90.33
2022-08-22T05:51:11.041Z,90.44
2022-08-22T05:52:11.039Z,89.58
2022-08-22T05:53:11.055Z,89.17
2022-08-22T05:54:11.123Z,89.03
2022-08-22T05:55:11.014Z,88.62
2022-08-22T05:56:11.028Z,87.81
2022-08-22T05:57:11.010Z,88.62
2022-08-22T05:58:11.034Z,88.58
2022-08-22T05:59:10.993Z,88.38
2022-08-22T06:00:11.000Z,88.38
2022-08-22T06:01:10.976Z,88.07
2022-08-22T06:02:11.083Z,87.43
2022-08-22T06:03:11.124Z,87.57
2022-08-22T06:04:10.947Z,87.32
2022-08-22T06:05:12.136Z,86.57
2022-08-22T06:06:11.957Z,86.16
2022-08-22T06:07:10.929Z,86.68
2022-08-22T06:08:10.948Z,86.57
2022-08-22T06:09:10.968Z,86.57
2022-08-22T06:10:10.925Z,86.22
2022-08-22T06:11:10.912Z,86.13
2022-08-22T06:12:15.061Z,85.42
2022-08-22T06:13:12.886Z,85.21
2022-08-22T06:14:10.919Z,85.72
2022-08-22T06:15:12.082Z,85.72
2022-08-22T06:16:10.887Z,85.62
2022-08-22T06:17:10.859Z,85.62
2022-08-22T06:18:10.852Z,85.52
2022-08-22T06:19:19.307Z,85.31
2022-08-22T06:20:11.838Z,86.19
2022-08-22T06:21:10.840Z,84.97
2022-08-22T06:22:13.714Z,84.73
2022-08-22T06:23:11.824Z,84.87
2022-08-22T06:24:11.271Z,84.97
2022-08-22T06:25:10.816Z,84.87
2022-08-22T06:26:21.042Z,84.42
2022-08-22T06:27:11.789Z,84.53
2022-08-22T06:28:10.786Z,84.42
2022-08-22T06:29:10.797Z,83.78
2022-08-22T06:30:10.774Z,84.08
2022-08-22T06:31:10.763Z,84.08
2022-08-22T06:32:10.752Z,83.78
2022-08-22T06:33:10.761Z,82.02
2022-08-22T06:34:10.750Z,82.32
2022-08-22T06:35:10.727Z,82.53
2022-08-22T06:36:10.710Z,81.62
2022-08-22T06:37:10.735Z,82.02
2022-08-22T06:38:10.703Z,82.49
2022-08-22T06:39:10.765Z,81.57
2022-08-22T06:40:10.739Z,81.48
2022-08-22T06:41:10.679Z,81.27
2022-08-22T06:42:15.855Z,80.53
2022-08-22T06:43:12.676Z,81.34
2022-08-22T06:44:10.702Z,81.23
2022-08-22T06:45:10.662Z,79.41
2022-08-22T06:46:10.658Z,79.79
2022-08-22T06:47:10.643Z,79.99
2022-08-22T06:48:10.633Z,80.08
2022-08-22T06:49:10.658Z,79.74
2022-08-22T06:50:13.546Z,79.24
2022-08-22T06:51:10.614Z,79.34
2022-08-22T06:52:10.678Z,78.53
2022-08-22T06:53:10.608Z,76.68
2022-08-22T06:54:10.621Z,77.19
2022-08-22T06:55:10.587Z,76.58
2022-08-22T06:56:10.594Z,77.28
2022-08-22T06:57:10.576Z,75.54
2022-08-22T06:58:10.585Z,75.63
2022-08-22T06:59:10.613Z,75.74
2022-08-22T07:00:10.556Z,75.63
2022-08-22T07:01:12.375Z,74.59
2022-08-22T07:02:10.635Z,75.23
2022-08-22T07:03:10.596Z,75.80
2022-08-22T07:04:10.617Z,74.93
2022-08-22T07:05:10.531Z,74.39
2022-08-22T07:06:10.524Z,74.22
2022-08-22T07:07:10.508Z,74.43
2022-08-22T07:08:10.499Z,73.79
2022-08-22T07:09:10.591Z,73.48
2022-08-22T07:10:10.495Z,73.82
2022-08-22T07:11:10.471Z,73.68
2022-08-22T07:12:10.475Z,72.58
2022-08-22T07:13:10.512Z,73.75
2022-08-22T07:14:10.447Z,73.32
2022-08-22T07:15:10.476Z,72.11
2022-08-22T07:16:10.452Z,71.91
2022-08-22T07:17:10.463Z,71.97
2022-08-22T07:18:11.061Z,72.11
2022-08-22T07:19:10.416Z,71.53
2022-08-22T07:20:10.549Z,71.73
2022-08-22T07:21:10.409Z,70.23
2022-08-22T07:22:10.400Z,71.73
2022-08-22T07:23:10.402Z,69.99
2022-08-22T07:24:10.399Z,68.68
2022-08-22T07:25:10.394Z,69.29
2022-08-22T07:26:10.364Z,69.69
2022-08-22T07:27:10.382Z,69.79
2022-08-22T07:28:16.123Z,68.65
2022-08-22T07:29:11.645Z,67.82
2022-08-22T07:30:11.487Z,67.18
2022-08-22T07:31:10.349Z,66.98
2022-08-22T07:32:10.314Z,67.38
2022-08-22T07:33:25.827Z,66.31
2022-08-22T07:34:11.313Z,66.78
2022-08-22T07:35:10.350Z,66.98
2022-08-22T07:36:10.306Z,66.85
2022-08-22T07:37:10.282Z,65.24
2022-08-22T07:38:10.281Z,65.31
2022-08-22T07:39:11.066Z,64.31
2022-08-22T07:40:10.354Z,64.91
2022-08-22T07:41:10.280Z,64.31
2022-08-22T07:42:10.255Z,65.18
2022-08-22T07:43:10.256Z,64.45
2022-08-22T07:44:10.249Z,64.37
2022-08-22T07:45:10.254Z,63.47
2022-08-22T07:46:10.251Z,63.98
2022-08-22T07:47:10.222Z,64.28
2022-08-22T07:48:10.209Z,64.58
2022-08-22T07:49:10.395Z,64.15
2022-08-22T07:50:10.251Z,63.17
2022-08-22T07:51:10.200Z,63.95
2022-08-22T07:52:10.201Z,63.54
2022-08-22T07:53:10.187Z,62.81
2022-08-22T07:54:10.198Z,62.81
2022-08-22T07:55:10.187Z,62.31
2022-08-22T07:56:10.194Z,63.51
2022-08-22T07:57:10.146Z,63.98
2022-08-22T07:58:10.207Z,62.55
2022-08-22T07:59:13.209Z,60.82
2022-08-22T08:00:10.159Z,60.72
2022-08-22T08:01:10.243Z,60.92
2022-08-22T08:02:10.143Z,60.69
2022-08-22T08:03:10.106Z,59.39
2022-08-22T08:04:10.133Z,59.97
2022-08-22T08:05:10.134Z,60.39
2022-08-22T08:06:10.131Z,58.97
2022-08-22T08:07:10.077Z,60.29
2022-08-22T08:08:10.073Z,60.10
2022-08-22T08:09:11.128Z,60.59
2022-08-22T08:10:13.085Z,59.69
2022-08-22T08:11:11.071Z,59.49
2022-08-22T08:12:10.066Z,60.29
2022-08-22T08:13:10.041Z,59.27
2022-08-22T08:14:10.044Z,58.76
2022-08-22T08:15:10.039Z,60.03
2022-08-22T08:16:10.022Z,57.74
2022-08-22T08:17:10.051Z,58.94
2022-08-22T08:18:10.003Z,57.04
2022-08-22T08:19:09.991Z,57.46
2022-08-22T08:20:10.073Z,57.93
2022-08-22T08:21:09.984Z,58.67
2022-08-22T08:22:09.996Z,59.47
2022-08-22T08:23:09.982Z,58.64
2022-08-22T08:24:09.968Z,57.51
2022-08-22T08:25:09.947Z,57.21
2022-08-22T08:26:10.950Z,57.11
2022-08-22T08:27:09.991Z,57.21
2022-08-22T08:28:10.180Z,56.51
2022-08-22T08:29:10.135Z,56.71
2022-08-22T08:30:14.694Z,57.14
2022-08-22T08:31:11.929Z,57.64
2022-08-22T08:32:09.927Z,57.01
2022-08-22T08:33:25.972Z,57.81
2022-08-22T08:34:10.883Z,56.84
2022-08-22T08:35:09.892Z,57.01
2022-08-22T08:36:09.891Z,55.99
2022-08-22T08:37:09.888Z,55.66
2022-08-22T08:38:09.894Z,55.63
2022-08-22T08:39:10.125Z,54.14
2022-08-22T08:40:09.909Z,55.43
2022-08-22T08:41:09.833Z,55.54
2022-08-22T08:42:09.840Z,55.21
2022-08-22T08:43:10.893Z,54.28
2022-08-22T08:44:09.820Z,53.71
2022-08-22T08:45:09.825Z,53.52
2022-08-22T08:46:09.817Z,53.81
2022-08-22T08:47:09.824Z,53.29
2022-08-22T08:48:09.844Z,52.69
2022-08-22T08:49:09.786Z,53.89
2022-08-22T08:50:09.789Z,53.36
2022-08-22T08:51:09.777Z,52.37
2022-08-22T08:52:09.980Z,53.11
2022-08-22T08:53:09.808Z,53.91
2022-08-22T08:54:09.751Z,53.89
2022-08-22T08:55:19.991Z,53.89
2022-08-22T08:56:10.897Z,52.59
2022-08-22T08:57:09.728Z,53.19
2022-08-22T08:58:10.284Z,53.22
2022-08-22T08:59:09.961Z,53.29
2022-08-22T09:00:09.724Z,53.59
2022-08-22T09:01:09.733Z,53.76
2022-08-22T09:02:09.677Z,53.56
2022-08-22T09:03:10.693Z,52.54
2022-08-22T09:04:15.063Z,52.54
2022-08-22T09:05:09.678Z,51.62
2022-08-22T09:06:09.687Z,51.79
2022-08-22T09:07:09.721Z,51.92
2022-08-22T09:08:11.704Z,50.40
2022-08-22T09:09:09.673Z,50.28
2022-08-22T09:10:09.762Z,50.08
2022-08-22T09:11:12.094Z,49.49
2022-08-22T09:12:09.670Z,49.91
2022-08-22T09:13:12.454Z,50.01
2022-08-22T09:14:09.647Z,50.38
2022-08-22T09:15:14.312Z,49.36
2022-08-22T09:16:10.099Z,49.56
2022-08-22T09:17:09.598Z,49.46
2022-08-22T09:18:09.592Z,48.94
2022-08-22T09:19:09.662Z,50.63
2022-08-22T09:20:17.781Z,50.93
2022-08-22T09:21:10.572Z,50.81
2022-08-22T09:23:10.945Z,49.17
2022-08-22T09:24:09.817Z,48.18
2022-08-22T09:25:09.568Z,48.94
2022-08-22T09:26:09.615Z,49.44
2022-08-22T09:27:10.464Z,48.27
2022-08-22T09:28:11.548Z,48.38
2022-08-22T09:29:11.030Z,49.39
2022-08-22T09:30:11.531Z,49.29
2022-08-22T09:31:21.936Z,49.86
2022-08-22T09:32:13.130Z,49.17
2022-08-22T09:33:09.480Z,48.87
2022-08-22T09:34:09.497Z,50.04
2022-08-22T09:35:09.704Z,48.03
2022-08-22T09:36:12.182Z,49.54
2022-08-22T09:37:09.447Z,49.94
2022-08-22T09:38:09.448Z,51.03
2022-08-22T09:39:09.437Z,51.25
2022-08-22T09:40:13.323Z,52.69
2022-08-22T09:41:11.642Z,53.66
2022-08-22T09:42:09.426Z,52.24
2022-08-22T09:43:09.404Z,51.25
2022-08-22T09:44:09.405Z,51.70
2022-08-22T09:45:09.508Z,52.17
2022-08-22T09:46:09.393Z,52.17
2022-08-22T09:47:09.374Z,53.86
2022-08-22T09:48:09.384Z,51.79
2022-08-22T09:49:09.370Z,49.15
2022-08-22T09:50:09.752Z,48.70
2022-08-22T09:51:31.205Z,47.52
2022-08-22T09:52:15.466Z,46.28
2022-08-22T09:53:09.346Z,45.05
2022-08-22T09:54:09.331Z,44.95
2022-08-22T09:55:09.328Z,45.05
2022-08-22T09:56:11.680Z,44.64
2022-08-22T09:57:09.306Z,45.35
2022-08-22T09:58:11.253Z,44.31
2022-08-22T09:59:09.698Z,45.71
2022-08-22T10:00:09.298Z,44.65
2022-08-22T10:01:09.358Z,44.32
2022-08-22T10:02:15.704Z,43.41
2022-08-22T10:03:10.273Z,43.51
2022-08-22T10:04:09.259Z,44.10
2022-08-22T10:05:09.272Z,43.17
2022-08-22T10:06:09.287Z,42.47
2022-08-22T10:07:11.939Z,42.07
2022-08-22T10:08:11.325Z,42.16
2022-08-22T10:09:09.306Z,40.84
2022-08-22T10:10:09.223Z,40.69
2022-08-22T10:11:09.218Z,39.39
2022-08-22T10:12:12.456Z,39.66
2022-08-22T10:13:10.397Z,38.11
2022-08-22T10:14:09.200Z,39.00
2022-08-22T10:15:09.184Z,38.90
2022-08-22T10:16:09.188Z,39.29
2022-08-22T10:17:09.208Z,38.11
2022-08-22T10:18:10.440Z,40.56
2022-08-22T10:19:09.165Z,41.86
2022-08-22T10:20:10.169Z,41.38
2022-08-22T10:21:09.166Z,41.86
2022-08-22T10:22:09.147Z,40.47
2022-08-22T10:23:09.208Z,42.12
2022-08-22T10:24:09.145Z,40.39
2022-08-22T10:25:09.127Z,37.88
2022-08-22T10:26:09.121Z,36.58
2022-08-22T10:27:10.107Z,37.25
2022-08-22T10:28:10.630Z,36.18
2022-08-22T10:29:09.145Z,36.44
2022-08-22T10:30:09.099Z,38.87
2022-08-22T10:31:09.106Z,40.11
2022-08-22T10:32:10.728Z,39.73
2022-08-22T10:33:12.084Z,40.53
2022-08-22T10:34:09.101Z,40.70
2022-08-22T10:35:09.067Z,40.88
2022-08-22T10:36:12.086Z,40.16
2022-08-22T10:37:09.059Z,38.82
2022-08-22T10:38:10.796Z,37.29
2022-08-22T10:39:11.651Z,35.78
2022-08-22T10:40:09.091Z,35.44
2022-08-22T10:41:09.375Z,33.36
2022-08-22T10:42:09.028Z,33.67
2022-08-22T10:43:09.322Z,34.34
2022-08-22T10:44:09.069Z,34.23
2022-08-22T10:45:09.033Z,33.82
2022-08-22T10:46:12.473Z,32.53
2022-08-22T10:47:09.001Z,32.73
2022-08-22T10:48:10.454Z,32.99
2022-08-22T10:49:09.038Z,32.32
2022-08-22T10:50:10.728Z,32.52
2022-08-22T10:51:09.084Z,32.50
2022-08-22T10:52:15.598Z,32.52
2022-08-22T10:53:10.972Z,34.06
2022-08-22T10:54:08.961Z,34.20
2022-08-22T10:55:09.956Z,34.96
2022-08-22T10:56:08.938Z,33.87
2022-08-22T10:57:08.934Z,34.64
2022-08-22T10:58:08.928Z,34.91
2022-08-22T10:59:08.978Z,33.82
2022-08-22T11:00:08.974Z,32.73
2022-08-22T11:01:37.998Z,33.28
2022-08-22T11:02:10.012Z,32.58
2022-08-22T11:03:09.916Z,32.86
2022-08-22T11:04:08.924Z,32.53
2022-08-22T11:05:08.912Z,30.60
2022-08-22T11:06:08.877Z,31.20
2022-08-22T11:07:09.380Z,35.16
2022-08-22T11:08:08.889Z,35.55
2022-08-22T11:09:08.857Z,33.53
2022-08-22T11:10:08.891Z,33.12
2022-08-22T11:11:08.846Z,32.92
2022-08-22T11:12:08.848Z,31.92
2022-08-22T11:13:08.830Z,31.99
2022-08-22T11:14:08.860Z,30.90
2022-08-22T11:15:08.852Z,29.03
2022-08-22T11:16:09.484Z,29.40
2022-08-22T11:17:23.598Z,31.46
2022-08-22T11:18:13.043Z,33.12
2022-08-22T11:19:15.235Z,33.50
2022-08-22T11:20:09.862Z,35.03
2022-08-22T11:21:08.774Z,34.72
2022-08-22T11:22:10.051Z,36.63
2022-08-22T11:23:08.781Z,36.87
2022-08-22T11:24:08.753Z,35.80
2022-08-22T11:25:08.784Z,35.86
2022-08-22T11:26:08.752Z,35.13
2022-08-22T11:27:08.756Z,33.61
2022-08-22T11:28:08.724Z,31.38
2022-08-22T11:29:13.323Z,30.47
2022-08-22T11:30:08.820Z,28.80
2022-08-22T11:31:08.708Z,29.71
2022-08-22T11:32:08.687Z,30.41
2022-08-22T11:33:09.577Z,30.29
2022-08-22T11:34:08.732Z,30.38
2022-08-22T11:35:09.319Z,30.04
2022-08-22T11:36:08.698Z,28.39
2022-08-22T11:37:11.120Z,29.35
2022-08-22T11:38:10.959Z,28.99
2022-08-22T11:39:18.448Z,29.10
2022-08-22T11:40:11.797Z,29.08
2022-08-22T11:41:08.642Z,28.47
2022-08-22T11:42:08.639Z,27.51
2022-08-22T11:43:18.049Z,26.83
2022-08-22T11:44:09.601Z,28.40
2022-08-22T11:45:08.715Z,28.57
2022-08-22T11:46:08.642Z,27.39
2022-08-22T11:47:08.602Z,28.53
2022-08-22T11:48:08.637Z,29.88
2022-08-22T11:49:08.569Z,31.87
2022-08-22T11:50:11.387Z,32.70
2022-08-22T11:51:13.157Z,33.46
2022-08-22T11:52:08.634Z,35.16
2022-08-22T11:53:08.621Z,35.31
2022-08-22T11:54:08.530Z,36.11
2022-08-22T11:55:08.522Z,36.49
2022-08-22T11:56:08.560Z,34.38
2022-08-22T11:57:08.581Z,34.64
2022-08-22T11:58:08.520Z,33.70
2022-08-22T11:59:08.586Z,32.50
2022-08-22T12:00:09.638Z,32.56
2022-08-22T12:01:11.825Z,33.53
2022-08-22T12:02:10.635Z,34.75
2022-08-22T12:03:08.528Z,37.51
2022-08-22T12:04:09.867Z,39.18
2022-08-22T12:05:08.454Z,37.81
2022-08-22T12:06:08.476Z,35.44
2022-08-22T12:07:08.531Z,32.14
2022-08-22T12:08:08.426Z,32.42
2022-08-22T12:09:13.696Z,31.00
2022-08-22T12:10:13.608Z,30.66
2022-08-22T12:11:08.427Z,28.69
2022-08-22T12:12:08.421Z,28.79
2022-08-22T12:13:08.469Z,30.51
2022-08-22T12:14:08.401Z,30.91
2022-08-22T12:15:09.173Z,31.32
2022-08-22T12:16:08.403Z,32.74
2022-08-22T12:17:08.818Z,33.48
2022-08-22T12:18:08.422Z,34.39
2022-08-22T12:19:08.598Z,34.49
2022-08-22T12:20:16.546Z,33.87
2022-08-22T12:21:10.900Z,32.22
2022-08-22T12:22:08.485Z,30.20
2022-08-22T12:23:08.473Z,29.10
2022-08-22T12:24:11.345Z,29.93
2022-08-22T12:25:09.362Z,29.72
2022-08-22T12:26:10.992Z,28.96
2022-08-22T12:27:08.396Z,29.17
2022-08-22T12:28:08.355Z,30.79
2022-08-22T12:29:15.396Z,32.12
2022-08-22T12:30:12.861Z,31.59
2022-08-22T12:31:08.426Z,31.80
2022-08-22T12:32:10.114Z,30.32
2022-08-22T12:33:08.449Z,30.27
2022-08-22T12:34:08.348Z,29.47
2022-08-22T12:35:13.402Z,29.24
2022-08-22T12:36:17.803Z,28.44
2022-08-22T12:37:08.398Z,27.62
2022-08-22T12:38:29.331Z,27.98
2022-08-22T12:39:09.308Z,26.10
2022-08-22T12:40:08.916Z,25.63
2022-08-22T12:41:08.429Z,25.45
2022-08-22T12:42:08.240Z,26.62
2022-08-22T12:43:08.224Z,25.96
2022-08-22T12:44:08.212Z,26.15
2022-08-22T12:45:08.273Z,25.85
2022-08-22T12:46:12.997Z,25.57
2022-08-22T12:47:09.406Z,26.17